Terminal Aerodrome Forecast
Issued by NWS Chicago, IL

Home | Current Version | Previous Version | Text Only | Print | Product List | Glossary Off
Versions: 1 2 3 4 5 6 7 8 9 10 11 12 13 14 15 16 17 18 19 20 21 22 23 24 25 26 27 28 29

000
FTUS43 KLOT 230550
TAFRFD
TAF
KRFD 230550Z 2306/2406 VRB03KT P6SM SCT030
     FM230700 00000KT 6SM BR FEW009 SCT030
      TEMPO 2309/2313 1SM BR BKN009
     FM231500 19007KT P6SM SCT040 BKN250=

USA.gov is the U.S. government's official web portal to all federal, state and local government web resources and services.